createdAt,value
2022-09-05T00:01:49.694Z,980.74
2022-09-05T00:08:00.758Z,980.71
2022-09-05T00:13:08.543Z,980.66
2022-09-05T00:25:14.237Z,981.08
2022-09-05T00:34:59.670Z,981.13
2022-09-05T00:40:31.439Z,981.19
2022-09-05T00:46:03.342Z,981.09
2022-09-05T00:51:39.239Z,981.41
2022-09-05T00:57:18.539Z,981.45
2022-09-05T01:02:53.295Z,981.45
2022-09-05T01:08:14.341Z,981.35
2022-09-05T01:13:46.191Z,981.22
2022-09-05T01:19:17.831Z,981.27
2022-09-05T01:24:49.519Z,981.2
2022-09-05T01:30:21.230Z,981.24
2022-09-05T01:36:05.011Z,981.33
2022-09-05T01:41:24.779Z,981.38
2022-09-05T01:46:58.274Z,981.23
2022-09-05T01:52:34.622Z,981.36
2022-09-05T01:58:06.243Z,981.49
2022-09-05T02:03:38.139Z,981.45
2022-09-05T02:09:09.708Z,981.72
2022-09-05T02:14:41.419Z,981.67
2022-09-05T02:20:24.310Z,981.37
2022-09-05T02:26:04.195Z,981.45
2022-09-05T02:31:21.483Z,981.65
2022-09-05T02:36:48.418Z,981.56
2022-09-05T02:47:51.779Z,981.59
2022-09-05T02:59:11.185Z,981.67
2022-09-05T03:04:33.274Z,981.64
2022-09-05T03:10:05.026Z,981.64
2022-09-05T03:15:36.745Z,981.6
2022-09-05T03:21:10.365Z,981.36
2022-09-05T03:26:40.210Z,981.49
2022-09-05T03:32:11.954Z,981.34
2022-09-05T03:37:43.638Z,981.42
2022-09-05T03:43:15.342Z,981.46
2022-09-05T03:48:47.066Z,981.68
2022-09-05T03:59:54.847Z,981.6
2022-09-05T04:10:58.656Z,981.77
2022-09-05T04:16:30.133Z,981.73
2022-09-05T04:22:01.798Z,981.92
2022-09-05T04:27:33.539Z,981.96
2022-09-05T04:33:05.243Z,981.99
2022-09-05T04:38:37.011Z,982.05
2022-09-05T04:44:08.739Z,982.0
2022-09-05T04:49:42.075Z,982.07
2022-09-05T04:55:18.534Z,982.16
2022-09-05T05:06:47.211Z,982.77
2022-09-05T05:19:07.188Z,982.46
2022-09-05T05:22:57.034Z,982.91
2022-09-05T05:28:29.274Z,983.0
2022-09-05T05:34:09.710Z,983.25
2022-09-05T05:39:32.533Z,983.54
2022-09-05T05:45:04.054Z,983.42
2022-09-05T05:50:35.734Z,983.73
2022-09-05T05:56:11.925Z,984.23
2022-09-05T06:01:43.957Z,984.1
2022-09-05T06:07:15.266Z,984.25
2022-09-05T06:18:18.754Z,984.6
2022-09-05T06:23:50.510Z,984.93
2022-09-05T06:29:22.152Z,984.57
2022-09-05T06:35:00.269Z,984.52
2022-09-05T06:40:32.461Z,985.38
2022-09-05T06:45:59.849Z,985.47
2022-09-05T06:51:28.971Z,985.55
2022-09-05T06:57:05.122Z,985.37
2022-09-05T07:03:01.417Z,985.79
2022-09-05T07:08:37.574Z,985.33
2022-09-05T07:13:45.510Z,985.86
2022-09-05T07:19:12.018Z,985.88
2022-09-05T07:24:56.367Z,985.88
2022-09-05T07:30:15.504Z,985.73
2022-09-05T07:35:47.334Z,985.79
2022-09-05T07:41:18.907Z,985.89
2022-09-05T07:46:50.683Z,986.34
2022-09-05T07:57:58.565Z,985.63
2022-09-05T08:03:30.406Z,985.66
2022-09-05T08:10:09.560Z,986.27
2022-09-05T08:14:46.417Z,984.72
2022-09-05T08:20:09.783Z,985.87
2022-09-05T08:25:58.295Z,986.11
2022-09-05T08:31:08.993Z,985.08
2022-09-05T08:36:40.520Z,984.9
2022-09-05T08:42:12.244Z,985.18
2022-09-05T08:47:46.688Z,984.73
2022-09-05T08:53:47.122Z,985.04
2022-09-05T08:59:33.327Z,985.63
2022-09-05T09:05:03.461Z,984.8
2022-09-05T09:09:55.630Z,985.42
2022-09-05T09:15:27.059Z,984.29
2022-09-05T09:20:58.729Z,985.03
2022-09-05T09:26:30.491Z,985.28
2022-09-05T09:32:02.191Z,984.84
2022-09-05T09:37:59.500Z,984.77
2022-09-05T09:43:08.010Z,984.98
2022-09-05T09:48:37.314Z,985.25
2022-09-05T09:54:09.141Z,983.86
2022-09-05T09:59:55.774Z,984.35
2022-09-05T10:11:54.423Z,984.44
2022-09-05T10:16:24.036Z,984.19
2022-09-05T10:22:37.964Z,984.47
2022-09-05T10:27:25.767Z,983.95
2022-09-05T10:38:27.249Z,983.66
2022-09-05T10:43:58.989Z,983.52
2022-09-05T10:49:31.294Z,983.58
2022-09-05T10:55:16.015Z,983.05
2022-09-05T11:06:12.297Z,982.52
2022-09-05T11:11:43.948Z,982.85
2022-09-05T11:17:15.635Z,982.12
2022-09-05T11:22:47.483Z,982.68
2022-09-05T11:28:19.127Z,982.7
2022-09-05T11:41:05.120Z,981.78
2022-09-05T11:44:54.278Z,981.7
2022-09-05T11:50:25.945Z,981.17
2022-09-05T11:55:57.718Z,981.24
2022-09-05T12:01:44.708Z,980.64
2022-09-05T12:07:32.378Z,980.64
2022-09-05T12:12:43.955Z,981.39
2022-09-05T12:19:23.250Z,980.86
2022-09-05T12:42:22.103Z,980.82
2022-09-05T12:51:48.334Z,980.39
2022-09-05T13:03:29.676Z,980.34
2022-09-05T13:08:02.918Z,980.25
2022-09-05T13:19:06.437Z,980.09
2022-09-05T13:24:38.142Z,979.45
2022-09-05T13:41:29.006Z,978.88
2022-09-05T13:46:44.982Z,978.98
2022-09-05T13:52:16.720Z,979.02
2022-09-05T13:57:48.597Z,979.1
2022-09-05T14:03:41.174Z,978.79
2022-09-05T14:09:40.031Z,978.15
2022-09-05T14:15:13.415Z,978.66
2022-09-05T14:19:59.735Z,977.96
2022-09-05T14:25:31.442Z,978.43
2022-09-05T14:38:15.629Z,978.22
2022-09-05T14:42:10.316Z,977.7
2022-09-05T14:47:38.390Z,978.39
2022-09-05T14:54:02.553Z,978.8
2022-09-05T15:04:34.601Z,978.36
2022-09-05T15:12:42.410Z,978.44
2022-09-05T15:15:21.654Z,977.9
2022-09-05T15:20:53.057Z,977.74
2022-09-05T15:26:27.451Z,978.06
2022-09-05T15:32:10.894Z,978.15
2022-09-05T15:37:28.232Z,977.67
2022-09-05T15:42:59.920Z,977.42
2022-09-05T15:48:35.565Z,977.27
2022-09-05T15:54:03.418Z,977.32
2022-09-05T15:59:35.142Z,977.62
2022-09-05T16:27:18.416Z,976.69
2022-09-05T16:32:52.276Z,976.66
2022-09-05T16:38:50.653Z,976.38
2022-09-05T16:43:53.848Z,976.41
2022-09-05T16:49:43.697Z,976.29
2022-09-05T16:54:57.022Z,976.38
2022-09-05T17:00:28.778Z,976.49
2022-09-05T17:06:04.929Z,976.61
2022-09-05T17:12:02.454Z,976.63
2022-09-05T17:18:25.249Z,976.44
2022-09-05T17:33:45.908Z,976.26
2022-09-05T17:39:15.218Z,976.21
2022-09-05T17:44:53.462Z,976.21
2022-09-05T17:50:18.657Z,976.25
2022-09-05T17:55:50.525Z,976.16
2022-09-05T18:01:27.739Z,976.16
2022-09-05T18:07:01.778Z,976.29
2022-09-05T18:13:34.361Z,976.24
2022-09-05T18:18:03.782Z,976.26
2022-09-05T18:24:35.961Z,976.34
2022-09-05T18:29:15.230Z,976.27
2022-09-05T18:34:39.216Z,976.3
2022-09-05T18:40:37.525Z,976.28
2022-09-05T18:45:53.962Z,976.43
2022-09-05T18:51:16.582Z,976.66
2022-09-05T18:57:29.146Z,976.74
2022-09-05T19:02:59.412Z,976.85
2022-09-05T19:08:00.535Z,976.94
2022-09-05T19:13:32.694Z,977.12
2022-09-05T19:18:59.062Z,977.25
2022-09-05T19:24:46.431Z,977.39
2022-09-05T19:48:07.906Z,977.52
2022-09-05T19:52:07.306Z,977.49
2022-09-05T19:57:38.994Z,977.35
2022-09-05T20:03:10.813Z,977.34
2022-09-05T20:08:46.991Z,977.33
2022-09-05T20:14:18.540Z,977.29
2022-09-05T20:19:50.411Z,977.39
2022-09-05T20:25:37.229Z,977.52
2022-09-05T20:30:53.888Z,977.73
2022-09-05T20:43:38.207Z,977.57
2022-09-05T20:54:42.158Z,977.65
2022-09-05T20:58:32.562Z,977.68
2022-09-05T21:04:04.182Z,977.76
2022-09-05T21:09:40.199Z,977.76
2022-09-05T21:15:54.661Z,977.67
2022-09-05T21:20:43.738Z,977.71
2022-09-05T21:26:15.359Z,977.76
2022-09-05T21:32:00.054Z,977.75
2022-09-05T21:37:18.918Z,977.91
2022-09-05T21:48:22.484Z,978.15
2022-09-05T21:59:47.198Z,978.12
2022-09-05T22:05:03.871Z,978.01
2022-09-05T22:10:53.350Z,977.83
2022-09-05T22:16:05.712Z,977.97
2022-09-05T22:21:36.998Z,977.91
2022-09-05T22:27:13.652Z,977.98
2022-09-05T22:32:40.453Z,977.93
2022-09-05T22:38:20.422Z,977.89
2022-09-05T22:43:43.904Z,978.06
2022-09-05T22:49:15.782Z,978.06
2022-09-05T22:54:47.300Z,977.7
2022-09-05T23:00:19.065Z,978.0
2022-09-05T23:05:50.806Z,978.17
2022-09-05T23:11:26.877Z,978.23
2022-09-05T23:16:58.669Z,978.2
2022-09-05T23:22:30.207Z,978.22
2022-09-05T23:28:02.123Z,978.44
2022-09-05T23:33:33.786Z,978.32
2022-09-05T23:39:05.458Z,978.4
2022-09-05T23:44:37.199Z,978.28
2022-09-05T23:50:08.882Z,978.09
2022-09-05T23:55:40.713Z,978.44
